KPHD/PHD METAR and TAF weather

Enter ICAO airport designator
Station Type Date Time Source
KPHD METAR 2022/05/25 00:53 UTC NOAA

KPHD 250053Z AUTO 09004KT 10SM CLR 19/13 A3017 RMK AO2 SLP216 T01940133


Station Type Date Time Source
KPHD Decoded METAR 2022/05/25 00:53 UTC NOAA

NEW PHILADELPHIA CLEVER FLD, OH, United States (KPHD) 40-28N 81-25W 272M
May 24, 2022 - 08:53 PM EDT / 2022.05.25 0053 UTC
Wind: from the E (090 degrees) at 5 MPH (4 KT):0
Visibility: 10 mile(s):0
Sky conditions: clear
Temperature: 66.9 F (19.4 C)
Dew Point: 55.9 F (13.3 C)
Relative Humidity: 67%
Pressure (altimeter): 30.17 in. Hg (1021 hPa)
ob: KPHD 250053Z AUTO 09004KT 10SM CLR 19/13 A3017 RMK AO2 SLP216 T01940133
cycle: 1

Station Type Date Time Source
KPHD TAF UTC NOAA

Error!

Example: see airport list